createdAt,value
2023-03-03T00:00:46.745Z,18.15
2023-03-03T00:03:17.504Z,18.48
2023-03-03T00:05:43.994Z,18.85
2023-03-03T00:08:10.644Z,18.35
2023-03-03T00:10:38.238Z,17.55
2023-03-03T00:13:12.773Z,15.68
2023-03-03T00:15:39.307Z,17.50
2023-03-03T00:18:18.868Z,17.40
2023-03-03T00:20:52.246Z,18.38
2023-03-03T00:23:38.771Z,17.10
2023-03-03T00:26:21.337Z,16.10
2023-03-03T00:28:49.981Z,16.00
2023-03-03T00:31:25.622Z,17.95
2023-03-03T00:33:54.887Z,19.15
2023-03-03T00:36:28.722Z,16.08
2023-03-03T00:38:57.897Z,18.60
2023-03-03T00:41:27.455Z,18.38
2023-03-03T00:43:54.494Z,16.83
2023-03-03T00:46:23.467Z,17.02
2023-03-03T00:48:51.277Z,17.65
2023-03-03T00:51:30.395Z,18.38
2023-03-03T00:53:58.210Z,18.20
2023-03-03T00:56:24.995Z,17.92
2023-03-03T00:58:51.814Z,17.92
2023-03-03T01:01:20.847Z,17.75
2023-03-03T01:03:51.241Z,17.05
2023-03-03T01:06:17.783Z,18.63
2023-03-03T01:08:44.399Z,17.58
2023-03-03T01:11:17.449Z,19.77
2023-03-03T01:13:47.965Z,19.60
2023-03-03T01:16:14.536Z,17.83
2023-03-03T01:18:42.052Z,18.00
2023-03-03T01:21:09.360Z,18.05
2023-03-03T01:23:35.888Z,17.60
2023-03-03T01:26:02.632Z,18.60
2023-03-03T01:28:29.136Z,18.95
2023-03-03T01:31:00.650Z,18.48
2023-03-03T01:33:27.259Z,18.27
2023-03-03T01:35:54.425Z,18.55
2023-03-03T01:38:21.365Z,18.60
2023-03-03T01:40:59.264Z,20.00
2023-03-03T01:43:31.534Z,18.45
2023-03-03T01:45:57.929Z,18.05
2023-03-03T01:48:37.954Z,19.20
2023-03-03T01:51:18.248Z,18.35
2023-03-03T01:53:49.922Z,18.20
2023-03-03T01:58:46.733Z,15.93
2023-03-03T02:01:21.006Z,16.63
2023-03-03T02:03:48.400Z,17.08
2023-03-03T02:06:19.564Z,18.02
2023-03-03T02:08:59.824Z,19.30
2023-03-03T02:11:29.605Z,18.80
2023-03-03T02:13:56.097Z,18.45
2023-03-03T02:16:23.039Z,17.27
2023-03-03T02:18:49.855Z,17.77
2023-03-03T02:21:20.718Z,17.80
2023-03-03T02:23:58.493Z,17.92
2023-03-03T02:26:31.200Z,17.73
2023-03-03T02:29:03.128Z,17.23
2023-03-03T02:31:31.588Z,17.88
2023-03-03T02:33:59.185Z,16.08
2023-03-03T02:36:31.753Z,16.40
2023-03-03T02:39:07.161Z,17.85
2023-03-03T02:41:53.224Z,17.08
2023-03-03T02:44:23.072Z,15.65
2023-03-03T02:46:50.902Z,16.75
2023-03-03T02:49:20.845Z,19.02
2023-03-03T02:51:47.641Z,16.05
2023-03-03T02:54:15.734Z,17.55
2023-03-03T02:56:42.453Z,16.88
2023-03-03T02:59:09.287Z,17.23
2023-03-03T03:01:42.122Z,17.35
2023-03-03T03:04:24.542Z,16.08
2023-03-03T03:06:52.254Z,17.33
2023-03-03T03:09:21.179Z,17.23
2023-03-03T03:11:49.846Z,18.55
2023-03-03T03:14:20.156Z,16.67
2023-03-03T03:16:46.744Z,18.63
2023-03-03T03:19:13.293Z,17.73
2023-03-03T03:21:40.572Z,17.52
2023-03-03T03:24:08.246Z,18.90
2023-03-03T03:26:36.946Z,18.27
2023-03-03T03:29:03.608Z,16.83
2023-03-03T03:31:30.930Z,15.15
2023-03-03T03:33:57.401Z,17.67
2023-03-03T03:36:24.502Z,17.35
2023-03-03T03:38:52.384Z,19.00
2023-03-03T03:41:18.835Z,19.45
2023-03-03T03:43:45.717Z,19.67
2023-03-03T03:46:13.026Z,19.42
2023-03-03T03:48:39.559Z,18.40
2023-03-03T03:51:09.825Z,19.20
2023-03-03T03:53:36.337Z,18.00
2023-03-03T03:56:02.825Z,20.50
2023-03-03T03:58:30.452Z,17.85
2023-03-03T04:01:06.636Z,21.63
2023-03-03T04:03:36.105Z,22.05
2023-03-03T04:06:06.075Z,19.58
2023-03-03T04:08:33.953Z,20.38
2023-03-03T04:11:00.866Z,20.02
2023-03-03T04:13:28.885Z,21.17
2023-03-03T04:15:55.731Z,19.80
2023-03-03T04:18:22.396Z,20.63
2023-03-03T04:20:49.976Z,20.92
2023-03-03T04:23:16.584Z,20.60
2023-03-03T04:25:43.079Z,21.27
2023-03-03T04:28:15.446Z,19.23
2023-03-03T04:30:42.662Z,20.60
2023-03-03T04:33:09.650Z,20.10
2023-03-03T04:35:38.639Z,18.13
2023-03-03T04:38:05.704Z,21.05
2023-03-03T04:40:33.227Z,19.17
2023-03-03T04:43:01.201Z,20.38
2023-03-03T04:45:28.026Z,21.05
2023-03-03T04:47:54.637Z,17.73
2023-03-03T04:50:22.206Z,19.90
2023-03-03T04:52:48.675Z,19.15
2023-03-03T04:55:16.625Z,19.70
2023-03-03T04:57:45.348Z,19.85
2023-03-03T05:00:13.505Z,20.83
2023-03-03T05:02:41.285Z,19.77
2023-03-03T05:05:13.654Z,18.70
2023-03-03T05:07:40.746Z,19.45
2023-03-03T05:10:08.173Z,19.98
2023-03-03T05:12:34.596Z,19.33
2023-03-03T05:15:01.379Z,20.10
2023-03-03T05:17:27.813Z,19.42
2023-03-03T05:19:54.210Z,21.95
2023-03-03T05:22:20.663Z,18.02
2023-03-03T05:24:49.268Z,20.65
2023-03-03T05:27:16.420Z,19.92
2023-03-03T05:29:42.921Z,19.63
2023-03-03T05:32:09.402Z,19.05
2023-03-03T05:34:36.076Z,21.00
2023-03-03T05:37:03.711Z,21.55
2023-03-03T05:39:30.156Z,19.48
2023-03-03T05:41:56.855Z,20.85
2023-03-03T05:44:23.310Z,18.98
2023-03-03T05:46:49.824Z,19.85
2023-03-03T05:49:16.429Z,18.30
2023-03-03T05:51:42.999Z,19.98
2023-03-03T05:54:09.473Z,20.13
2023-03-03T05:56:35.987Z,19.48
2023-03-03T05:59:02.611Z,20.80
2023-03-03T06:01:29.329Z,20.33
2023-03-03T06:03:55.833Z,20.58
2023-03-03T06:06:22.320Z,21.40
2023-03-03T06:08:48.801Z,19.38
2023-03-03T06:11:16.666Z,19.70
2023-03-03T06:13:43.203Z,20.65
2023-03-03T06:16:10.005Z,19.77
2023-03-03T06:18:37.018Z,18.35
2023-03-03T06:21:03.577Z,20.60
2023-03-03T06:23:30.029Z,22.77
2023-03-03T06:25:56.640Z,20.55
2023-03-03T06:28:24.932Z,19.67
2023-03-03T06:30:55.759Z,19.15
2023-03-03T06:33:22.973Z,20.10
2023-03-03T06:35:51.616Z,21.17
2023-03-03T06:38:18.119Z,18.63
2023-03-03T06:40:45.357Z,22.25
2023-03-03T06:43:12.320Z,25.33
2023-03-03T06:45:38.934Z,24.80
2023-03-03T06:48:05.599Z,22.23
2023-03-03T06:50:32.130Z,22.52
2023-03-03T06:53:10.554Z,23.70
2023-03-03T06:55:37.340Z,20.80
2023-03-03T06:58:16.165Z,19.33
2023-03-03T07:00:45.109Z,26.52
2023-03-03T07:03:15.991Z,29.02
2023-03-03T07:05:43.402Z,23.90
2023-03-03T07:08:17.530Z,22.92
2023-03-03T07:10:44.896Z,20.75
2023-03-03T07:13:26.887Z,22.15
2023-03-03T07:15:54.848Z,22.10
2023-03-03T07:18:24.702Z,24.50
2023-03-03T07:20:51.390Z,22.85
2023-03-03T07:23:42.349Z,20.90
2023-03-03T07:26:12.593Z,21.33
2023-03-03T07:28:42.387Z,21.67
2023-03-03T07:31:39.231Z,24.20
2023-03-03T07:34:23.741Z,22.95
2023-03-03T07:36:53.785Z,20.40
2023-03-03T07:39:40.354Z,18.90
2023-03-03T07:42:27.711Z,21.38
2023-03-03T07:45:22.047Z,19.75
2023-03-03T07:47:48.492Z,17.48
2023-03-03T07:50:24.156Z,18.83
2023-03-03T07:53:01.014Z,17.77
2023-03-03T07:55:35.548Z,15.30
2023-03-03T07:58:10.920Z,15.13
2023-03-03T08:00:40.497Z,16.08
2023-03-03T08:03:17.828Z,16.65
2023-03-03T08:05:47.939Z,15.93
2023-03-03T08:08:42.519Z,13.57
2023-03-03T08:11:09.615Z,14.48
2023-03-03T08:13:38.678Z,15.48
2023-03-03T08:16:11.126Z,13.98
2023-03-03T08:18:42.461Z,15.57
2023-03-03T08:21:15.068Z,18.50
2023-03-03T08:23:41.599Z,16.13
2023-03-03T08:26:08.707Z,16.80
2023-03-03T08:28:35.341Z,14.05
2023-03-03T08:31:16.401Z,14.43
2023-03-03T08:33:45.483Z,13.70
2023-03-03T08:36:12.703Z,14.48
2023-03-03T08:38:39.727Z,14.02
2023-03-03T08:41:06.503Z,13.98
2023-03-03T08:43:33.074Z,13.77
2023-03-03T08:46:01.818Z,13.48
2023-03-03T08:48:29.488Z,13.10
2023-03-03T08:50:56.107Z,14.10
2023-03-03T08:53:23.650Z,15.38
2023-03-03T08:55:50.279Z,14.27
2023-03-03T08:58:18.280Z,17.58
2023-03-03T09:00:48.117Z,15.85
2023-03-03T09:03:15.738Z,17.75
2023-03-03T09:05:42.275Z,15.75
2023-03-03T09:08:10.643Z,15.32
2023-03-03T09:10:37.583Z,15.90
2023-03-03T09:13:13.757Z,16.42
2023-03-03T09:15:40.459Z,15.82
2023-03-03T09:18:20.335Z,15.27
2023-03-03T09:20:54.446Z,16.38
2023-03-03T09:23:23.907Z,16.52
2023-03-03T09:25:51.715Z,15.88
2023-03-03T09:28:32.733Z,15.10
2023-03-03T09:31:01.528Z,15.65
2023-03-03T09:33:40.365Z,15.55
2023-03-03T09:36:37.973Z,15.68
2023-03-03T09:39:25.768Z,14.15
2023-03-03T09:42:26.107Z,16.73
2023-03-03T09:45:20.354Z,16.17
2023-03-03T09:47:55.952Z,15.77
2023-03-03T09:50:46.789Z,15.77
2023-03-03T09:53:38.058Z,14.13
2023-03-03T09:56:30.123Z,14.10
2023-03-03T10:01:53.405Z,14.80
2023-03-03T10:04:34.954Z,16.58
2023-03-03T10:07:22.739Z,14.63
2023-03-03T10:09:58.380Z,13.57
2023-03-03T10:12:45.410Z,14.68
2023-03-03T10:15:26.559Z,15.82
2023-03-03T10:18:16.880Z,14.63
2023-03-03T10:20:52.400Z,15.32
2023-03-03T10:23:22.613Z,15.02
2023-03-03T10:26:08.447Z,15.05
2023-03-03T10:28:50.418Z,15.57
2023-03-03T10:31:42.598Z,14.43
2023-03-03T10:34:27.502Z,16.10
2023-03-03T10:36:56.576Z,15.05
2023-03-03T10:39:58.370Z,15.32
2023-03-03T10:42:36.598Z,16.33
2023-03-03T10:45:36.019Z,16.02
2023-03-03T10:48:24.022Z,16.20
2023-03-03T10:50:58.661Z,15.00
2023-03-03T10:53:46.006Z,14.95
2023-03-03T10:56:35.404Z,15.15
2023-03-03T10:59:31.305Z,16.27
2023-03-03T11:02:43.137Z,14.73
2023-03-03T11:05:18.315Z,13.52
2023-03-03T11:07:51.741Z,13.98
2023-03-03T11:10:37.495Z,14.63
2023-03-03T11:13:19.136Z,13.45
2023-03-03T11:16:10.030Z,14.38
2023-03-03T11:19:02.391Z,15.05
2023-03-03T11:21:47.301Z,13.48
2023-03-03T11:24:26.779Z,14.23
2023-03-03T11:26:53.149Z,14.93
2023-03-03T11:29:47.851Z,14.13
2023-03-03T11:32:24.065Z,13.60
2023-03-03T11:34:56.239Z,14.93
2023-03-03T11:37:39.632Z,14.57
2023-03-03T11:40:18.118Z,15.73
2023-03-03T11:43:18.593Z,15.07
2023-03-03T11:45:58.439Z,13.85
2023-03-03T11:48:33.703Z,14.75
2023-03-03T11:51:07.651Z,15.00
2023-03-03T11:53:43.132Z,15.88
2023-03-03T11:56:27.670Z,15.38
2023-03-03T11:58:58.172Z,15.65
2023-03-03T12:01:30.422Z,14.20
2023-03-03T12:04:06.347Z,15.55
2023-03-03T12:06:47.907Z,13.70
2023-03-03T12:09:32.005Z,14.23
2023-03-03T12:12:14.688Z,16.17
2023-03-03T12:15:10.556Z,14.85
2023-03-03T12:18:05.922Z,13.73
2023-03-03T12:20:59.966Z,14.57
2023-03-03T12:23:51.303Z,14.60
2023-03-03T12:26:27.089Z,14.75
2023-03-03T12:28:59.494Z,15.43
2023-03-03T12:31:44.384Z,14.88
2023-03-03T12:34:26.967Z,14.60
2023-03-03T12:37:05.151Z,16.92
2023-03-03T12:39:56.225Z,14.50
2023-03-03T12:42:41.706Z,14.60
2023-03-03T12:45:30.063Z,15.43
2023-03-03T12:48:05.463Z,15.45
2023-03-03T12:51:21.322Z,15.48
2023-03-03T12:54:13.608Z,14.38
2023-03-03T12:56:51.114Z,14.98
2023-03-03T12:59:29.541Z,14.45
2023-03-03T13:02:29.910Z,17.00
2023-03-03T13:05:27.297Z,13.77
2023-03-03T13:08:16.383Z,15.40
2023-03-03T13:10:50.363Z,14.48
2023-03-03T13:13:26.940Z,15.82
2023-03-03T13:16:17.119Z,14.70
2023-03-03T13:19:08.758Z,14.57
2023-03-03T13:21:41.992Z,14.15
2023-03-03T13:24:43.654Z,14.70
2023-03-03T13:27:16.892Z,15.05
2023-03-03T13:29:59.316Z,16.25
2023-03-03T13:32:40.395Z,14.70
2023-03-03T13:35:30.013Z,13.82
2023-03-03T13:37:58.120Z,16.40
2023-03-03T13:41:09.414Z,15.63
2023-03-03T13:43:47.432Z,14.30
2023-03-03T13:46:51.485Z,15.48
2023-03-03T13:49:20.836Z,14.63
2023-03-03T13:52:02.797Z,15.75
2023-03-03T13:54:53.098Z,15.80
2023-03-03T13:57:31.440Z,14.48
2023-03-03T14:00:24.723Z,15.27
2023-03-03T14:03:29.698Z,15.23
2023-03-03T14:06:14.594Z,15.77
2023-03-03T14:08:50.441Z,16.60
2023-03-03T14:11:25.191Z,16.90
2023-03-03T14:14:28.718Z,15.25
2023-03-03T14:17:11.661Z,16.42
2023-03-03T14:19:48.211Z,14.90
2023-03-03T14:22:37.975Z,14.05
2023-03-03T14:25:22.801Z,16.40
2023-03-03T14:27:49.180Z,15.43
2023-03-03T14:30:21.846Z,15.43
2023-03-03T14:33:17.628Z,16.30
2023-03-03T14:35:57.534Z,16.83
2023-03-03T14:38:36.011Z,16.05
2023-03-03T14:41:13.810Z,15.52
2023-03-03T14:43:42.703Z,15.75
2023-03-03T14:46:24.865Z,15.13
2023-03-03T14:48:53.526Z,16.88
2023-03-03T14:51:27.147Z,16.83
2023-03-03T14:53:53.996Z,16.42
2023-03-03T14:56:30.278Z,16.17
2023-03-03T14:59:18.771Z,17.75
2023-03-03T15:01:45.763Z,16.42
2023-03-03T15:04:25.729Z,16.27
2023-03-03T15:06:54.867Z,16.40
2023-03-03T15:09:36.784Z,16.15
2023-03-03T15:12:18.979Z,16.40
2023-03-03T15:14:48.776Z,15.73
2023-03-03T15:17:34.178Z,17.85
2023-03-03T15:20:27.145Z,16.50
2023-03-03T15:23:05.720Z,19.65
2023-03-03T15:25:58.763Z,16.48
2023-03-03T15:28:55.703Z,16.08
2023-03-03T15:31:45.635Z,16.27
2023-03-03T15:34:38.203Z,17.83
2023-03-03T15:37:12.779Z,17.52
2023-03-03T15:39:44.905Z,17.17
2023-03-03T15:42:13.567Z,16.92
2023-03-03T15:44:58.833Z,17.13
2023-03-03T15:47:50.017Z,17.63
2023-03-03T15:50:35.830Z,17.02
2023-03-03T15:53:26.970Z,17.20
2023-03-03T15:56:16.264Z,16.67
2023-03-03T15:59:08.138Z,15.85
2023-03-03T16:04:10.343Z,17.85
2023-03-03T16:07:16.664Z,16.98
2023-03-03T16:10:12.159Z,17.75
2023-03-03T16:12:41.640Z,16.70
2023-03-03T16:15:36.302Z,18.70
2023-03-03T16:18:24.577Z,15.85
2023-03-03T16:21:01.775Z,16.73
2023-03-03T16:23:47.194Z,16.40
2023-03-03T16:26:25.550Z,16.45
2023-03-03T16:29:07.595Z,16.83
2023-03-03T16:31:45.726Z,16.00
2023-03-03T16:34:33.601Z,16.42
2023-03-03T16:37:22.353Z,14.68
2023-03-03T16:40:01.829Z,16.80
2023-03-03T16:42:30.613Z,17.00
2023-03-03T16:45:06.614Z,17.30
2023-03-03T16:47:44.547Z,17.08
2023-03-03T16:50:15.629Z,15.98
2023-03-03T16:52:47.947Z,17.92
2023-03-03T16:55:28.094Z,16.80
2023-03-03T16:58:16.493Z,18.77
2023-03-03T17:00:50.558Z,15.95
2023-03-03T17:03:35.537Z,16.45
2023-03-03T17:06:15.556Z,16.50
2023-03-03T17:09:33.545Z,19.27
2023-03-03T17:12:18.680Z,19.45
2023-03-03T17:15:10.985Z,17.92
2023-03-03T17:17:47.148Z,20.27
2023-03-03T17:20:36.912Z,19.70
2023-03-03T17:23:20.518Z,30.13
2023-03-03T17:25:52.925Z,34.47
2023-03-03T17:28:51.680Z,30.55
2023-03-03T17:31:21.205Z,22.15
2023-03-03T17:34:03.492Z,20.23
2023-03-03T17:36:48.588Z,19.15
2023-03-03T17:39:24.158Z,22.90
2023-03-03T17:41:59.742Z,18.38
2023-03-03T17:44:46.399Z,18.67
2023-03-03T17:47:23.942Z,18.98
2023-03-03T17:49:56.344Z,17.30
2023-03-03T17:52:39.385Z,18.92
2023-03-03T17:55:32.545Z,23.17
2023-03-03T17:58:14.198Z,18.75
2023-03-03T18:01:07.148Z,20.73
2023-03-03T18:04:00.841Z,17.80
2023-03-03T18:06:55.357Z,18.25
2023-03-03T18:09:33.663Z,20.02
2023-03-03T18:12:31.228Z,21.05
2023-03-03T18:15:16.240Z,19.45
2023-03-03T18:18:22.285Z,19.10
2023-03-03T18:20:59.803Z,20.17
2023-03-03T18:23:41.970Z,19.13
2023-03-03T18:26:26.738Z,18.10
2023-03-03T18:29:05.710Z,17.98
2023-03-03T18:31:46.209Z,18.17
2023-03-03T18:34:18.763Z,16.48
2023-03-03T18:37:07.359Z,18.33
2023-03-03T18:39:45.669Z,18.63
2023-03-03T18:42:40.963Z,17.75
2023-03-03T18:45:30.318Z,19.63
2023-03-03T18:48:03.875Z,21.48
2023-03-03T18:50:34.564Z,20.15
2023-03-03T18:53:23.785Z,19.90
2023-03-03T18:55:58.616Z,22.02
2023-03-03T18:58:41.352Z,21.98
2023-03-03T19:01:10.917Z,20.33
2023-03-03T19:06:32.904Z,21.25
2023-03-03T19:08:59.546Z,21.50
2023-03-03T19:11:44.900Z,21.20
2023-03-03T19:14:17.234Z,22.13
2023-03-03T19:16:44.696Z,21.73
2023-03-03T19:19:12.502Z,22.73
2023-03-03T19:21:40.732Z,24.38
2023-03-03T19:24:22.655Z,22.52
2023-03-03T19:29:46.807Z,22.67
2023-03-03T19:32:44.375Z,22.58
2023-03-03T19:35:18.616Z,21.10
2023-03-03T19:38:18.472Z,20.77
2023-03-03T19:40:55.701Z,20.15
2023-03-03T19:43:44.920Z,18.67
2023-03-03T19:46:47.154Z,17.70
2023-03-03T19:49:27.760Z,19.95
2023-03-03T19:52:14.024Z,20.77
2023-03-03T19:54:59.039Z,21.27
2023-03-03T19:57:37.306Z,19.58
2023-03-03T20:00:19.434Z,19.55
2023-03-03T20:03:07.051Z,19.40
2023-03-03T20:05:52.417Z,19.15
2023-03-03T20:08:31.147Z,18.10
2023-03-03T20:11:35.896Z,14.75
2023-03-03T20:14:34.656Z,18.38
2023-03-03T20:17:32.212Z,18.67
2023-03-03T20:20:12.897Z,19.55
2023-03-03T20:23:01.984Z,17.50
2023-03-03T20:25:34.636Z,20.20
2023-03-03T20:28:39.068Z,19.48
2023-03-03T20:31:11.745Z,18.75
2023-03-03T20:33:45.432Z,18.13
2023-03-03T20:36:33.940Z,20.77
2023-03-03T20:39:14.767Z,20.00
2023-03-03T20:42:09.179Z,18.50
2023-03-03T20:44:58.783Z,17.55
2023-03-03T20:47:56.471Z,18.02
2023-03-03T20:50:37.556Z,17.27
2023-03-03T20:53:37.843Z,18.58
2023-03-03T20:56:24.262Z,18.27
2023-03-03T20:59:05.950Z,17.67
2023-03-03T21:01:41.675Z,18.23
2023-03-03T21:04:30.265Z,17.00
2023-03-03T21:06:58.008Z,17.70
2023-03-03T21:09:37.912Z,17.77
2023-03-03T21:12:28.871Z,19.75
2023-03-03T21:15:02.090Z,16.92
2023-03-03T21:17:30.900Z,17.83
2023-03-03T21:20:29.975Z,17.50
2023-03-03T21:22:58.383Z,16.60
2023-03-03T21:25:40.240Z,17.00
2023-03-03T21:31:09.100Z,16.73
2023-03-03T21:33:44.640Z,16.27
2023-03-03T21:36:14.330Z,14.85
2023-03-03T21:38:41.501Z,16.65
2023-03-03T21:41:08.945Z,17.13
2023-03-03T21:43:41.566Z,16.95
2023-03-03T21:46:08.621Z,16.33
2023-03-03T21:48:35.197Z,15.43
2023-03-03T21:51:01.756Z,16.13
2023-03-03T21:53:29.641Z,16.90
2023-03-03T21:55:56.172Z,16.00
2023-03-03T21:58:22.698Z,16.92
2023-03-03T22:00:49.209Z,16.95
2023-03-03T22:03:16.802Z,16.42
2023-03-03T22:05:43.747Z,17.08
2023-03-03T22:08:10.215Z,18.17
2023-03-03T22:10:36.694Z,16.40
2023-03-03T22:13:03.469Z,16.27
2023-03-03T22:15:33.166Z,18.77
2023-03-03T22:18:00.426Z,18.50
2023-03-03T22:20:27.008Z,18.05
2023-03-03T22:22:53.541Z,17.77
2023-03-03T22:25:19.988Z,19.15
2023-03-03T22:27:46.532Z,19.30
2023-03-03T22:30:13.655Z,17.95
2023-03-03T22:32:40.197Z,17.63
2023-03-03T22:35:08.399Z,17.27
2023-03-03T22:37:34.924Z,16.63
2023-03-03T22:40:01.485Z,16.30
2023-03-03T22:42:28.113Z,16.05
2023-03-03T22:44:54.562Z,16.23
2023-03-03T22:47:21.015Z,15.20
2023-03-03T22:49:47.497Z,16.02
2023-03-03T22:52:13.993Z,15.23
2023-03-03T22:54:40.982Z,17.73
2023-03-03T22:57:07.455Z,15.93
2023-03-03T22:59:34.484Z,14.98
2023-03-03T23:02:01.000Z,15.00
2023-03-03T23:04:27.555Z,14.05
2023-03-03T23:06:54.164Z,15.30
2023-03-03T23:09:20.667Z,14.88
2023-03-03T23:11:47.140Z,15.05
2023-03-03T23:14:13.997Z,14.85
2023-03-03T23:16:40.503Z,15.68
2023-03-03T23:19:07.004Z,15.85
2023-03-03T23:21:33.769Z,16.88
2023-03-03T23:24:00.272Z,16.17
2023-03-03T23:26:26.755Z,16.02
2023-03-03T23:28:53.217Z,15.60
2023-03-03T23:31:19.716Z,15.73
2023-03-03T23:33:46.280Z,16.75
2023-03-03T23:36:12.901Z,16.20
2023-03-03T23:38:40.293Z,15.38
2023-03-03T23:41:08.397Z,17.00
2023-03-03T23:43:35.012Z,15.90
2023-03-03T23:46:01.470Z,16.33
2023-03-03T23:48:27.922Z,14.18
2023-03-03T23:50:54.424Z,15.18
2023-03-03T23:53:21.060Z,14.70
2023-03-03T23:55:47.596Z,14.88
2023-03-03T23:58:14.153Z,15.73
